createdAt,value
2022-08-08T11:02:55.776Z,25.30
2022-08-08T11:05:25.338Z,25.70
2022-08-08T11:19:06.074Z,26.10
2022-08-08T11:21:41.291Z,26.20
2022-08-08T11:24:10.964Z,26.20
2022-08-08T11:26:56.838Z,26.30
2022-08-08T11:29:51.161Z,26.30
2022-08-08T11:32:22.098Z,26.20
2022-08-08T11:35:27.265Z,26.30
2022-08-08T11:38:39.646Z,26.30
2022-08-08T11:40:43.107Z,26.20
2022-08-08T11:43:17.470Z,26.30
2022-08-08T11:46:09.098Z,26.50
2022-08-08T11:48:35.112Z,26.60
2022-08-08T11:51:30.122Z,26.50
2022-08-08T11:54:01.172Z,26.40
2022-08-08T11:56:35.076Z,26.50
2022-08-08T11:59:10.603Z,26.60
2022-08-08T12:01:39.211Z,26.70
2022-08-08T12:04:10.147Z,26.70
2022-08-08T12:06:40.646Z,26.60
2022-08-08T12:09:17.096Z,26.60
2022-08-08T12:11:49.462Z,26.60
2022-08-08T12:14:23.975Z,26.80
2022-08-08T12:16:57.614Z,26.90
2022-08-08T12:19:37.522Z,26.40
2022-08-08T12:22:21.088Z,26.50
2022-08-08T12:24:53.745Z,26.50
2022-08-08T12:27:27.066Z,26.80
2022-08-08T12:30:21.689Z,26.90
2022-08-08T12:32:54.468Z,27.20
2022-08-08T12:35:24.381Z,27.00
2022-08-08T12:38:07.450Z,27.00
2022-08-08T12:40:54.789Z,26.70
2022-08-08T12:43:31.915Z,26.60
2022-08-08T12:46:02.765Z,26.80
2022-08-08T12:48:36.550Z,27.20
2022-08-08T12:51:10.987Z,27.30
2022-08-08T12:53:58.687Z,27.40
2022-08-08T12:56:34.861Z,27.50
2022-08-08T12:59:14.515Z,27.40
2022-08-08T13:01:43.556Z,27.50
2022-08-08T13:04:24.618Z,27.70
2022-08-08T13:06:55.678Z,27.50
2022-08-08T13:09:33.662Z,27.70
2022-08-08T13:12:29.431Z,28.00
2022-08-08T13:15:00.998Z,28.20
2022-08-08T13:18:09.113Z,28.40
2022-08-08T13:20:21.837Z,28.60
2022-08-08T13:22:51.618Z,28.60
2022-08-08T13:25:35.220Z,28.70
2022-08-08T13:28:03.247Z,28.70
2022-08-08T13:30:31.383Z,28.90
2022-08-08T13:33:01.290Z,29.20
2022-08-08T13:35:38.661Z,29.20
2022-08-08T13:38:12.329Z,29.60
2022-08-08T13:40:44.749Z,29.80
2022-08-08T13:43:16.088Z,30.20
2022-08-08T13:48:19.683Z,30.50
2022-08-08T13:50:57.650Z,31.40
2022-08-08T13:53:59.803Z,31.40
2022-08-08T13:59:32.580Z,33.50
2022-08-08T14:02:07.409Z,33.70
2022-08-08T14:04:35.934Z,33.90
2022-08-08T14:07:05.485Z,34.30
2022-08-08T14:10:05.635Z,34.30
2022-08-08T14:12:28.697Z,34.20
2022-08-08T14:14:57.079Z,34.80
2022-08-08T14:17:58.125Z,35.30
2022-08-08T14:20:15.532Z,35.40
2022-08-08T14:25:53.990Z,36.40
2022-08-08T14:28:29.277Z,36.90
2022-08-08T14:31:09.332Z,36.60
2022-08-08T14:33:39.076Z,36.30
2022-08-08T14:36:11.465Z,36.20
2022-08-08T14:38:51.549Z,36.60
2022-08-08T14:41:54.167Z,36.70
2022-08-08T14:44:19.597Z,36.90
2022-08-08T14:47:00.131Z,37.20
2022-08-08T14:49:37.880Z,37.50
2022-08-08T14:52:23.042Z,37.80
2022-08-08T14:54:51.501Z,37.00
2022-08-08T14:58:00.940Z,36.60
2022-08-08T15:00:11.803Z,36.90
2022-08-08T15:02:58.798Z,37.30
2022-08-08T15:05:42.786Z,37.30
2022-08-08T15:08:21.951Z,38.00
2022-08-08T15:11:01.531Z,38.50
2022-08-08T15:13:39.886Z,37.50
2022-08-08T15:16:14.448Z,36.80
2022-08-08T15:18:50.045Z,37.40
2022-08-08T15:21:20.796Z,37.40
2022-08-08T15:23:50.937Z,36.50
2022-08-08T15:26:20.197Z,36.10
2022-08-08T15:28:53.158Z,35.80
2022-08-08T15:31:49.011Z,36.10
2022-08-08T15:34:18.636Z,36.70
2022-08-08T15:37:01.877Z,37.40
2022-08-08T15:39:38.160Z,38.20
2022-08-08T15:42:13.279Z,38.40
2022-08-08T15:44:46.925Z,37.60
2022-08-08T15:47:19.162Z,37.50
2022-08-08T15:49:48.679Z,37.20
2022-08-08T15:52:17.914Z,37.40
2022-08-08T15:54:47.944Z,37.70
2022-08-08T15:57:20.166Z,37.70
2022-08-08T16:00:05.315Z,38.00
2022-08-08T16:02:43.993Z,38.10
2022-08-08T16:05:14.379Z,37.20
2022-08-08T16:07:51.315Z,36.20
2022-08-08T16:13:20.913Z,35.60
2022-08-08T16:13:30.575Z,34.00
2022-08-08T16:16:13.255Z,32.90
2022-08-08T16:18:56.253Z,32.10
2022-08-08T16:21:27.255Z,31.40
2022-08-08T16:23:56.554Z,30.60
2022-08-08T16:26:34.783Z,29.90
2022-08-08T16:29:09.595Z,29.60
2022-08-08T16:31:42.051Z,29.30
2022-08-08T16:34:20.570Z,29.20
2022-08-08T16:36:50.872Z,29.20
2022-08-08T16:39:48.905Z,28.80
2022-08-08T16:42:18.031Z,28.70
2022-08-08T16:44:47.415Z,28.60
2022-08-08T16:47:40.608Z,28.60
2022-08-08T16:50:15.178Z,28.50
2022-08-08T16:55:04.913Z,28.40
2022-08-08T16:55:55.162Z,28.40
2022-08-08T16:58:25.843Z,28.30
2022-08-08T17:00:55.038Z,28.10
2022-08-08T17:03:25.285Z,28.00
2022-08-08T17:06:35.574Z,28.10
2022-08-08T17:09:00.727Z,28.00
2022-08-08T17:11:39.476Z,27.80
2022-08-08T17:14:19.378Z,28.00
2022-08-08T17:16:51.784Z,28.10
2022-08-08T17:19:27.360Z,28.00
2022-08-08T17:22:01.248Z,28.00
2022-08-08T17:24:30.956Z,27.90
2022-08-08T17:27:00.042Z,27.80
2022-08-08T17:29:28.487Z,27.80
2022-08-08T17:32:02.717Z,27.30
2022-08-08T17:34:52.650Z,27.60
2022-08-08T17:37:20.703Z,27.50
2022-08-08T17:40:12.448Z,27.50
2022-08-08T17:42:38.783Z,27.40
2022-08-08T17:45:14.363Z,27.50
2022-08-08T17:47:51.275Z,27.40
2022-08-08T17:50:19.851Z,27.20
2022-08-08T17:52:49.391Z,27.30
2022-08-08T17:56:07.048Z,27.10
2022-08-08T17:58:05.447Z,27.20
2022-08-08T18:00:33.555Z,26.90
2022-08-08T18:03:13.691Z,26.90
2022-08-08T18:05:47.926Z,26.90
2022-08-08T18:08:24.802Z,27.00
2022-08-08T18:11:08.089Z,26.90
2022-08-08T18:13:41.904Z,26.80
2022-08-08T18:16:11.259Z,26.60
2022-08-08T18:18:42.694Z,26.80
2022-08-08T18:21:35.317Z,26.50
2022-08-08T18:24:00.866Z,26.50
2022-08-08T18:26:30.169Z,26.40
2022-08-08T18:28:58.637Z,26.30
2022-08-08T18:31:28.647Z,26.10
2022-08-08T18:36:46.215Z,25.80
2022-08-08T18:39:16.475Z,25.10
2022-08-08T18:41:58.314Z,24.60
2022-08-08T18:44:33.106Z,24.00
2022-08-08T18:47:04.818Z,23.60
2022-08-08T18:49:40.958Z,23.30
2022-08-08T18:52:23.209Z,23.10
2022-08-08T18:54:59.792Z,22.70
2022-08-08T18:57:31.727Z,22.50
2022-08-08T19:00:10.696Z,22.10
2022-08-08T19:02:48.480Z,21.80
2022-08-08T19:05:24.336Z,21.70
2022-08-08T19:08:00.332Z,21.60
2022-08-08T19:10:29.882Z,21.40
2022-08-08T19:12:58.197Z,21.30
2022-08-08T19:15:34.364Z,21.30
2022-08-08T19:18:33.362Z,20.90
2022-08-08T19:20:51.969Z,20.70
2022-08-08T19:23:21.642Z,20.50
2022-08-08T19:26:28.332Z,20.30
2022-08-08T19:28:41.848Z,20.20
2022-08-08T19:31:13.144Z,20.00
2022-08-08T19:34:04.880Z,19.80
2022-08-08T19:36:33.326Z,19.80
2022-08-08T19:39:01.383Z,19.80
2022-08-08T19:41:33.721Z,19.80
2022-08-08T19:44:12.582Z,19.60
2022-08-08T19:46:41.607Z,19.60
2022-08-08T19:49:13.003Z,19.70
2022-08-08T19:51:43.352Z,19.40
2022-08-08T19:54:12.456Z,19.30
2022-08-08T19:56:48.985Z,19.20
2022-08-08T19:59:22.194Z,19.80
2022-08-08T20:02:02.657Z,19.00
2022-08-08T20:04:32.359Z,19.00
2022-08-08T20:07:05.060Z,18.80
2022-08-08T20:09:45.041Z,18.70
2022-08-08T20:12:34.469Z,18.60
2022-08-08T20:15:15.010Z,18.40
2022-08-08T20:17:46.327Z,18.30
2022-08-08T20:20:19.564Z,18.50
2022-08-08T20:22:53.986Z,18.30
2022-08-08T20:25:26.375Z,18.20
2022-08-08T20:28:05.710Z,18.60
2022-08-08T20:30:55.729Z,18.20
2022-08-08T20:35:59.532Z,17.90
2022-08-08T20:38:34.415Z,17.80
2022-08-08T20:41:05.968Z,17.70
2022-08-08T21:40:54.725Z,16.60
2022-08-08T21:43:23.434Z,16.50
2022-08-08T21:48:12.899Z,16.50
2022-08-08T21:48:44.661Z,16.40
2022-08-08T21:51:45.945Z,16.30
2022-08-08T21:54:32.215Z,16.50
2022-08-08T21:56:54.600Z,16.30
2022-08-08T21:59:22.939Z,16.20
2022-08-08T22:01:55.528Z,16.80
2022-08-08T22:04:24.587Z,16.10
2022-08-08T22:06:54.044Z,16.60
2022-08-08T22:09:26.816Z,16.30
2022-08-08T22:12:08.920Z,16.20
2022-08-08T22:14:37.999Z,16.80
2022-08-08T22:17:12.269Z,16.20
2022-08-08T22:20:11.041Z,16.30
2022-08-08T22:22:31.572Z,16.50
2022-08-08T22:25:12.449Z,16.40
2022-08-08T22:28:03.046Z,16.40
2022-08-08T22:30:40.946Z,16.00
2022-08-08T22:34:11.260Z,16.10
2022-08-08T22:36:04.084Z,16.30
2022-08-08T22:38:48.051Z,15.90
2022-08-08T22:41:21.123Z,16.00
2022-08-08T22:44:02.906Z,15.80
2022-08-08T22:46:34.297Z,15.80
2022-08-08T22:49:09.355Z,16.10
2022-08-08T22:51:42.548Z,15.70
2022-08-08T22:54:30.100Z,15.80
2022-08-08T22:57:11.269Z,15.60
2022-08-08T22:59:48.345Z,15.60
2022-08-08T23:02:28.671Z,15.70
2022-08-08T23:05:01.948Z,15.80
2022-08-08T23:07:52.085Z,15.70
2022-08-08T23:10:21.420Z,15.60
2022-08-08T23:12:53.360Z,15.60
2022-08-08T23:16:38.459Z,15.40
2022-08-08T23:18:12.046Z,15.30
2022-08-08T23:20:43.363Z,15.80
2022-08-08T23:23:14.715Z,15.10
2022-08-08T23:25:48.809Z,15.10
2022-08-08T23:28:19.128Z,15.10
2022-08-08T23:30:47.934Z,15.10
2022-08-08T23:33:20.884Z,15.10
2022-08-08T23:36:07.826Z,15.20
2022-08-08T23:38:43.963Z,15.10
2022-08-08T23:41:22.857Z,15.10
2022-08-08T23:43:56.541Z,14.90
2022-08-08T23:49:08.139Z,14.70
2022-08-08T23:49:18.109Z,14.60
2022-08-08T23:52:05.381Z,14.50
2022-08-08T23:54:43.800Z,14.40
2022-08-08T23:57:38.706Z,14.50
